Time;durP1;ratioP1;P1;durP2;ratioP2;P2;SDS_P1;SDS_P2;PMS_P1;PMS_P2;Temp;Humidity;BMP_temperature;BMP_pressure;BME280_temperature;BME280_humidity;BME280_pressure;Samples;Min_cycle;Max_cycle;Signal;HPM_P1;HPM_P2
2024/04/02 00:00:07;;;;;;;26.58;7.32;;;18.80;61.50;;;;;;4176669;28;20025;-56
2024/04/02 00:02:09;;;;;;;35.13;8.02;;;18.80;61.70;;;;;;4176280;28;20123;-58
2024/04/02 00:04:12;;;;;;;31.70;7.93;;;18.70;61.70;;;;;;4176488;28;20102;-51
2024/04/02 00:06:13;;;;;;;30.48;6.00;;;18.70;61.80;;;;;;4175072;28;20041;-54
2024/04/02 00:08:14;;;;;;;38.35;7.43;;;18.60;61.90;;;;;;4160647;28;20433;-56
2024/04/02 00:10:15;;;;;;;40.10;9.00;;;18.50;62.40;;;;;;4159085;28;20068;-56
2024/04/02 00:12:17;;;;;;;34.88;6.72;;;18.30;62.70;;;;;;4160448;28;20145;-57
2024/04/02 00:14:18;;;;;;;30.40;6.38;;;18.20;62.90;;;;;;4159674;28;20037;-56
2024/04/02 00:16:19;;;;;;;37.50;7.55;;;18.20;62.90;;;;;;4161374;28;20080;-53
2024/04/02 00:18:20;;;;;;;27.27;7.32;;;18.10;63.10;;;;;;4162185;28;20445;-57
2024/04/02 00:20:22;;;;;;;33.55;7.97;;;18.10;63.20;;;;;;4163000;28;20041;-57
2024/04/02 00:22:24;;;;;;;35.13;8.65;;;18.00;63.30;;;;;;4162206;28;20029;-58
2024/04/02 00:24:25;;;;;;;38.63;8.95;;;17.90;63.40;;;;;;4178944;28;20041;-59
2024/04/02 00:26:26;;;;;;;46.30;8.45;;;17.90;63.70;;;;;;4178705;28;20025;-58
2024/04/02 00:28:28;;;;;;;34.78;8.43;;;17.90;63.80;;;;;;4179337;28;20025;-58
2024/04/02 00:30:30;;;;;;;35.85;8.63;;;17.80;64.10;;;;;;4178100;28;20045;-58
2024/04/02 00:32:32;;;;;;;42.78;9.35;;;17.70;64.30;;;;;;4179131;28;20044;-56
2024/04/02 00:34:34;;;;;;;31.25;7.70;;;17.80;64.00;;;;;;4179359;28;20044;-58
2024/04/02 00:36:36;;;;;;;34.08;7.10;;;17.80;63.80;;;;;;4178479;28;20052;-51
2024/04/02 00:38:37;;;;;;;45.13;8.00;;;17.90;63.70;;;;;;4179299;28;20049;-56
2024/04/02 00:40:41;;;;;;;27.70;6.65;;;17.90;63.90;;;;;;4178158;28;20090;-54
2024/04/02 00:42:46;;;;;;;30.70;8.38;;;17.80;64.10;;;;;;4179734;28;20029;-53
2024/04/02 00:44:47;;;;;;;44.63;7.85;;;17.70;64.20;;;;;;4178040;28;20041;-55
2024/04/02 00:46:49;;;;;;;42.63;8.02;;;17.60;64.40;;;;;;4179157;28;20041;-52
2024/04/02 00:48:51;;;;;;;44.85;7.57;;;17.60;64.60;;;;;;4178482;28;20091;-52
2024/04/02 00:50:53;;;;;;;38.03;8.52;;;17.50;64.60;;;;;;4179504;28;20037;-55
2024/04/02 00:52:55;;;;;;;30.63;7.93;;;17.50;64.60;;;;;;4178065;28;20489;-57
2024/04/02 00:54:58;;;;;;;35.40;8.63;;;17.40;65.00;;;;;;4179382;28;20041;-57
2024/04/02 00:57:00;;;;;;;46.22;8.00;;;17.30;65.10;;;;;;4178044;28;20037;-55
2024/04/02 00:59:01;;;;;;;33.30;8.00;;;17.20;65.40;;;;;;4178952;28;20806;-57
2024/04/02 01:01:03;;;;;;;36.55;7.53;;;17.10;65.60;;;;;;4178861;28;20432;-50
2024/04/02 01:03:05;;;;;;;34.67;7.65;;;17.00;65.80;;;;;;4178565;28;20033;-55
2024/04/02 01:05:06;;;;;;;40.38;6.88;;;17.00;66.00;;;;;;4178861;28;20036;-53
2024/04/02 01:07:08;;;;;;;36.05;7.38;;;17.00;65.80;;;;;;4178294;28;20485;-54
2024/04/02 01:09:09;;;;;;;40.30;8.07;;;17.00;65.60;;;;;;4178897;28;20033;-51
2024/04/02 01:11:10;;;;;;;37.75;8.50;;;17.00;65.40;;;;;;4177679;28;20071;-56
2024/04/02 01:13:12;;;;;;;34.75;7.38;;;17.10;65.30;;;;;;4178434;28;20057;-56
2024/04/02 01:15:22;;;;;;;30.65;7.32;;;17.10;65.00;;;;;;4177107;28;20053;-57
2024/04/02 01:17:23;;;;;;;29.80;7.00;;;17.20;64.80;;;;;;4175855;28;20082;-54
2024/04/02 01:19:24;;;;;;;33.00;7.22;;;17.30;64.80;;;;;;4176001;28;20029;-51
2024/04/02 01:21:27;;;;;;;49.15;7.68;;;17.30;64.90;;;;;;4177277;28;20036;-56
2024/04/02 01:23:28;;;;;;;30.55;8.27;;;17.30;65.00;;;;;;4176863;28;20067;-53
2024/04/02 01:25:30;;;;;;;35.67;7.90;;;17.20;65.00;;;;;;4177144;28;20161;-55
2024/04/02 01:27:32;;;;;;;36.47;6.60;;;17.20;65.10;;;;;;4177303;28;20044;-53
2024/04/02 01:29:33;;;;;;;41.92;8.40;;;17.20;65.30;;;;;;4178984;28;20021;-57
2024/04/02 01:31:34;;;;;;;39.92;8.93;;;17.10;65.50;;;;;;4177509;28;20079;-56
2024/04/02 01:33:35;;;;;;;39.22;7.05;;;17.10;65.50;;;;;;4177045;28;20178;-56
2024/04/02 01:35:37;;;;;;;46.55;7.00;;;17.10;65.40;;;;;;4177459;28;20082;-57
2024/04/02 01:37:38;;;;;;;28.95;6.88;;;17.10;65.40;;;;;;4178158;28;20029;-55
2024/04/02 01:39:39;;;;;;;35.88;8.10;;;17.00;65.40;;;;;;4176020;28;20096;-55
2024/04/02 01:41:40;;;;;;;39.42;6.55;;;17.00;65.60;;;;;;4175006;28;20107;-59
2024/04/02 01:43:42;;;;;;;29.80;7.03;;;17.00;65.50;;;;;;4175798;28;20033;-57
2024/04/02 01:45:43;;;;;;;32.10;7.13;;;17.00;65.60;;;;;;4174699;28;20362;-57
2024/04/02 01:47:44;;;;;;;31.52;7.03;;;17.00;65.50;;;;;;4175085;28;20041;-56
2024/04/02 01:49:45;;;;;;;31.77;7.88;;;17.10;65.40;;;;;;4174529;28;20045;-54
2024/04/02 01:51:47;;;;;;;26.48;5.80;;;17.10;65.80;;;;;;4177255;28;20461;-56
2024/04/02 01:53:48;;;;;;;35.88;6.57;;;17.00;66.00;;;;;;4175349;28;20554;-57
2024/04/02 01:55:50;;;;;;;22.60;5.68;;;16.90;66.00;;;;;;4176075;28;20040;-57
2024/04/02 01:57:51;;;;;;;30.35;6.38;;;16.90;65.70;;;;;;4174719;28;20083;-52
2024/04/02 01:59:53;;;;;;;30.48;6.20;;;17.00;65.40;;;;;;4175366;28;20094;-57
2024/04/02 02:01:54;;;;;;;34.65;6.07;;;17.10;65.40;;;;;;4174016;28;20454;-57
2024/04/02 02:03:55;;;;;;;25.65;6.13;;;17.10;65.20;;;;;;4177683;28;20098;-54
2024/04/02 02:05:57;;;;;;;25.55;6.80;;;17.20;64.70;;;;;;4177570;28;20020;-47
2024/04/02 02:07:58;;;;;;;38.33;6.75;;;17.20;64.70;;;;;;4177289;28;20489;-54
2024/04/02 02:09:59;;;;;;;30.17;6.40;;;17.20;64.70;;;;;;4177573;28;20071;-56
2024/04/02 02:12:01;;;;;;;41.13;5.60;;;17.30;64.50;;;;;;4176183;28;20094;-57
2024/04/02 02:14:02;;;;;;;35.88;5.93;;;17.30;65.10;;;;;;4176595;28;20029;-54
2024/04/02 02:16:05;;;;;;;32.13;7.10;;;17.30;64.30;;;;;;4174148;28;20878;-54
2024/04/02 02:18:07;;;;;;;31.40;6.07;;;17.20;65.40;;;;;;4174293;28;20090;-56
2024/04/02 02:20:09;;;;;;;32.75;6.25;;;17.10;65.40;;;;;;4174040;28;20091;-56
2024/04/02 02:22:10;;;;;;;26.73;5.30;;;17.00;65.70;;;;;;4175165;28;20423;-54
2024/04/02 02:24:11;;;;;;;27.30;6.18;;;16.90;65.70;;;;;;4174434;28;20554;-57
2024/04/02 02:26:12;;;;;;;34.08;6.80;;;16.90;65.40;;;;;;4177960;28;20045;-57
2024/04/02 02:28:14;;;;;;;42.70;7.47;;;16.90;66.00;;;;;;4176218;28;20049;-58
2024/04/02 02:30:16;;;;;;;30.75;6.55;;;16.80;65.70;;;;;;4178298;28;20086;-56
2024/04/02 02:32:17;;;;;;;36.75;8.10;;;16.90;65.80;;;;;;4176860;28;20091;-52
2024/04/02 02:34:18;;;;;;;38.05;6.55;;;17.00;65.90;;;;;;4176076;28;20122;-55
2024/04/02 02:36:20;;;;;;;44.20;7.53;;;16.90;65.90;;;;;;4174902;28;20048;-57
2024/04/02 02:38:21;;;;;;;69.55;8.13;;;16.90;66.20;;;;;;4172924;28;20103;-57
2024/04/02 02:40:22;;;;;;;36.67;6.72;;;16.80;66.10;;;;;;4176464;28;20091;-56
2024/04/02 02:42:23;;;;;;;40.33;7.20;;;16.80;66.10;;;;;;4174113;28;20558;-58
2024/04/02 02:44:25;;;;;;;30.52;6.32;;;16.80;65.70;;;;;;4174894;28;20021;-57
2024/04/02 02:46:26;;;;;;;29.42;6.72;;;16.90;66.20;;;;;;4173962;28;20106;-56
2024/04/02 02:48:27;;;;;;;29.10;5.38;;;16.90;65.20;;;;;;4174282;28;20511;-54
2024/04/02 02:50:29;;;;;;;33.85;7.40;;;16.90;65.60;;;;;;4173821;28;20087;-56
2024/04/02 02:52:30;;;;;;;42.97;9.18;;;16.90;65.00;;;;;;4174524;28;20356;-54
2024/04/02 02:54:31;;;;;;;37.08;5.82;;;17.10;64.10;;;;;;4175432;28;20485;-56
2024/04/02 02:56:32;;;;;;;31.45;6.70;;;17.40;63.00;;;;;;4175632;28;20110;-55
2024/04/02 02:58:34;;;;;;;44.80;7.22;;;17.70;62.60;;;;;;4174121;28;20083;-54
2024/04/02 03:00:38;;;;;;;39.05;6.10;;;17.80;62.20;;;;;;4175863;28;20033;-56
2024/04/02 03:02:39;;;;;;;28.63;6.07;;;17.90;61.70;;;;;;4175022;28;20436;-55
2024/04/02 03:04:41;;;;;;;36.80;5.50;;;18.10;61.50;;;;;;4173883;28;20393;-57
2024/04/02 03:06:42;;;;;;;37.53;7.00;;;18.10;61.20;;;;;;4176706;28;20139;-54
2024/04/02 03:08:43;;;;;;;32.97;5.45;;;18.10;61.30;;;;;;4175302;28;20091;-53
2024/04/02 03:10:54;;;;;;;23.42;5.20;;;18.10;61.30;;;;;;4174516;28;20097;-55
2024/04/02 03:12:57;;;;;;;33.75;6.10;;;17.90;61.50;;;;;;4173958;28;20118;-57
2024/04/02 03:14:58;;;;;;;43.22;5.65;;;17.90;61.60;;;;;;4173043;28;20017;-57
2024/04/02 03:17:00;;;;;;;26.42;6.13;;;17.80;61.90;;;;;;4176485;28;20125;-57
2024/04/02 03:19:01;;;;;;;31.80;7.55;;;17.70;62.10;;;;;;4175144;28;20094;-56
2024/04/02 03:21:04;;;;;;;31.98;6.40;;;17.60;62.20;;;;;;4173570;28;20037;-59
2024/04/02 03:23:05;;;;;;;31.05;5.70;;;17.50;62.60;;;;;;4176126;28;20033;-57
2024/04/02 03:25:06;;;;;;;25.77;6.20;;;17.40;62.90;;;;;;4172289;28;21617;-58
2024/04/02 03:27:09;;;;;;;37.13;6.45;;;17.30;63.00;;;;;;4176658;28;20041;-57
2024/04/02 03:29:10;;;;;;;39.83;6.20;;;17.30;63.00;;;;;;4175585;28;20482;-57
2024/04/02 03:31:12;;;;;;;33.15;7.82;;;17.20;63.30;;;;;;4175567;28;20044;-57
2024/04/02 03:33:14;;;;;;;39.20;8.25;;;17.20;63.70;;;;;;4173124;28;20045;-57
2024/04/02 03:35:15;;;;;;;40.25;7.50;;;17.10;63.70;;;;;;4176819;28;20041;-56
2024/04/02 03:37:16;;;;;;;30.50;5.70;;;17.10;63.70;;;;;;4173515;28;20067;-56
2024/04/02 03:39:18;;;;;;;39.63;6.35;;;17.00;63.80;;;;;;4173843;28;20442;-57
2024/04/02 03:41:19;;;;;;;32.38;7.97;;;16.90;63.90;;;;;;4173380;28;20037;-57
2024/04/02 03:43:20;;;;;;;53.90;8.75;;;16.90;64.10;;;;;;4173790;28;20037;-57
2024/04/02 03:45:21;;;;;;;34.45;7.70;;;16.90;64.40;;;;;;4173733;28;20056;-59
2024/04/02 03:47:23;;;;;;;33.20;6.32;;;16.80;64.40;;;;;;4175290;28;20566;-58
2024/04/02 03:49:24;;;;;;;41.10;6.25;;;16.80;64.30;;;;;;4174442;28;20421;-57
2024/04/02 03:51:25;;;;;;;47.40;8.00;;;16.80;64.40;;;;;;4177529;28;20036;-57
2024/04/02 03:53:26;;;;;;;41.47;8.60;;;16.80;64.50;;;;;;4179796;28;20481;-53
2024/04/02 03:55:33;;;;;;;48.22;7.25;;;16.80;64.50;;;;;;4178907;28;20037;-56
2024/04/02 03:57:34;;;;;;;41.63;8.32;;;16.80;64.50;;;;;;4180505;28;20078;-55
2024/04/02 03:59:36;;;;;;;48.45;8.85;;;16.90;64.70;;;;;;4179179;28;20041;-57
2024/04/02 04:01:38;;;;;;;46.03;7.72;;;16.70;64.80;;;;;;4180591;28;20082;-58
2024/04/02 04:03:39;;;;;;;43.53;8.88;;;16.70;64.70;;;;;;4178799;28;20080;-56
2024/04/02 04:05:40;;;;;;;44.90;6.10;;;16.70;65.30;;;;;;4179797;28;20400;-55
2024/04/02 04:07:41;;;;;;;49.08;9.15;;;16.60;65.50;;;;;;4178898;28;20049;-56
2024/04/02 04:09:46;;;;;;;37.28;7.85;;;16.40;65.60;;;;;;4179308;28;20037;-55
2024/04/02 04:11:48;;;;;;;37.63;6.93;;;16.30;66.30;;;;;;4178204;28;20086;-60
2024/04/02 04:13:49;;;;;;;43.30;7.30;;;16.20;66.60;;;;;;4178391;28;20053;-57
2024/04/02 04:15:54;;;;;;;33.50;5.90;;;16.10;66.90;;;;;;4178151;28;20049;-59
2024/04/02 04:17:56;;;;;;;32.85;6.90;;;16.30;67.10;;;;;;4178590;28;20512;-59
2024/04/02 04:19:57;;;;;;;31.45;6.60;;;16.40;67.20;;;;;;4179099;28;20099;-57
2024/04/02 04:21:58;;;;;;;36.33;6.18;;;16.40;67.20;;;;;;4178407;28;20392;-56
2024/04/02 04:24:00;;;;;;;37.88;7.53;;;16.50;67.90;;;;;;4179221;28;20082;-56
2024/04/02 04:26:03;;;;;;;35.72;6.90;;;16.50;69.60;;;;;;4178481;28;20029;-55
2024/04/02 04:28:04;;;;;;;42.53;6.03;;;16.70;69.60;;;;;;4177932;28;20110;-57
2024/04/02 04:30:07;;;;;;;37.08;6.32;;;16.80;71.00;;;;;;4177175;28;20033;-57
2024/04/02 04:32:08;;;;;;;27.13;5.00;;;16.90;72.20;;;;;;4179615;28;20053;-57
2024/04/02 04:34:09;;;;;;;36.15;5.50;;;17.10;72.80;;;;;;4176640;28;20060;-58
2024/04/02 04:36:12;;;;;;;45.92;5.97;;;17.10;73.90;;;;;;4178873;28;20396;-58
2024/04/02 04:38:18;;;;;;;38.10;5.95;;;17.20;74.20;;;;;;4178023;28;20120;-56
2024/04/02 04:40:19;;;;;;;38.03;6.75;;;17.30;75.50;;;;;;4178750;28;20045;-58
2024/04/02 04:42:23;;;;;;;30.70;4.68;;;17.30;75.80;;;;;;4178103;28;20469;-57
2024/04/02 04:44:24;;;;;;;30.55;6.05;;;17.30;75.70;;;;;;4179111;28;20037;-58
2024/04/02 04:46:25;;;;;;;33.83;5.88;;;17.30;76.10;;;;;;4177782;28;20028;-56
2024/04/02 04:48:27;;;;;;;34.10;4.60;;;17.20;76.50;;;;;;4178846;28;20170;-57
2024/04/02 04:50:28;;;;;;;24.73;5.13;;;17.20;76.70;;;;;;4177791;28;20067;-55
2024/04/02 04:52:29;;;;;;;30.90;5.15;;;17.20;76.90;;;;;;4177839;28;20803;-57
2024/04/02 04:54:32;;;;;;;31.50;5.68;;;17.20;77.00;;;;;;4178485;28;20041;-60
2024/04/02 04:56:33;;;;;;;30.02;5.55;;;17.20;77.30;;;;;;4177908;28;20025;-53
2024/04/02 04:58:36;;;;;;;33.10;5.22;;;17.10;77.30;;;;;;4178587;28;20516;-57
2024/04/02 05:00:37;;;;;;;27.05;5.18;;;17.10;77.50;;;;;;4177672;28;20075;-57
2024/04/02 05:02:39;;;;;;;28.13;4.07;;;17.10;77.60;;;;;;4178531;28;20083;-58
2024/04/02 05:04:40;;;;;;;33.15;4.68;;;17.10;77.40;;;;;;4177367;28;20111;-59
2024/04/02 05:06:43;;;;;;;31.55;8.10;;;17.10;77.20;;;;;;4178783;28;20432;-58
2024/04/02 05:08:45;;;;;;;20.23;3.65;;;17.20;77.00;;;;;;4177827;28;21045;-56
2024/04/02 05:10:47;;;;;;;16.17;3.38;;;17.30;76.90;;;;;;4179053;28;20456;-57
2024/04/02 05:12:48;;;;;;;21.17;3.42;;;17.30;76.60;;;;;;4177930;28;20490;-56
2024/04/02 05:14:49;;;;;;;16.83;2.95;;;17.40;76.30;;;;;;4178971;28;20095;-57
2024/04/02 05:16:50;;;;;;;14.27;2.33;;;17.50;76.00;;;;;;4177719;28;20048;-56
2024/04/02 05:18:52;;;;;;;12.85;4.13;;;17.40;75.80;;;;;;4178174;28;20148;-60
2024/04/02 05:20:53;;;;;;;16.02;2.45;;;17.40;75.70;;;;;;4177835;28;20034;-57
2024/04/02 05:22:54;;;;;;;11.95;2.72;;;17.50;75.80;;;;;;4178386;28;20040;-53
2024/04/02 05:24:56;;;;;;;11.07;1.60;;;17.40;75.60;;;;;;4177887;28;20099;-55
2024/04/02 05:26:57;;;;;;;10.63;1.67;;;17.40;75.60;;;;;;4177618;28;20029;-57
2024/04/02 05:28:58;;;;;;;8.30;1.60;;;17.40;75.50;;;;;;4178378;28;20036;-57
2024/04/02 05:30:59;;;;;;;5.65;1.08;;;17.40;75.30;;;;;;4177687;28;20110;-55
2024/04/02 05:33:01;;;;;;;3.60;0.65;;;17.40;75.40;;;;;;4178447;28;20041;-49
2024/04/02 05:35:03;;;;;;;5.95;0.80;;;17.30;75.30;;;;;;4177425;28;20492;-55
2024/04/02 05:37:04;;;;;;;4.32;0.90;;;17.20;75.40;;;;;;4178253;28;20037;-57
2024/04/02 05:39:05;;;;;;;4.72;0.40;;;17.20;75.10;;;;;;4177442;28;20048;-58
2024/04/02 05:41:06;;;;;;;4.75;0.90;;;17.20;75.00;;;;;;4178064;28;20049;-56
2024/04/02 05:43:08;;;;;;;3.15;0.55;;;17.10;75.10;;;;;;4177167;28;20033;-54
2024/04/02 05:45:09;;;;;;;12.45;1.10;;;17.10;75.20;;;;;;4178085;28;20041;-57
2024/04/02 05:47:10;;;;;;;2.10;0.10;;;17.00;75.20;;;;;;4177297;28;20429;-56
2024/04/02 05:49:13;;;;;;;0.85;0.32;;;16.90;75.10;;;;;;4177885;28;20045;-57
2024/04/02 05:51:15;;;;;;;3.20;0.60;;;16.90;75.00;;;;;;4177244;28;20423;-58
2024/04/02 05:53:16;;;;;;;1.85;0.17;;;16.80;74.90;;;;;;4177332;28;20438;-57
2024/04/02 05:55:17;;;;;;;2.80;0.03;;;16.70;74.50;;;;;;4177115;28;20082;-57
2024/04/02 05:57:18;;;;;;;8.15;0.52;;;16.60;74.90;;;;;;4177118;28;20041;-55
2024/04/02 05:59:20;;;;;;;4.45;0.40;;;16.50;74.90;;;;;;4177587;28;20637;-58
2024/04/02 06:01:22;;;;;;;3.53;0.45;;;16.50;75.00;;;;;;4177221;28;20049;-53
2024/04/02 06:03:23;;;;;;;1.75;0.20;;;16.50;75.00;;;;;;4177731;28;20091;-57
2024/04/02 06:05:24;;;;;;;3.20;0.10;;;16.60;75.00;;;;;;4176546;28;20049;-55
2024/04/02 06:07:25;;;;;;;0.52;0.13;;;16.60;75.00;;;;;;4177705;28;20049;-59
2024/04/02 06:09:27;;;;;;;1.27;0.38;;;16.60;74.90;;;;;;4176954;28;20033;-59
2024/04/02 06:11:28;;;;;;;1.52;0.32;;;16.50;74.70;;;;;;4177975;28;20405;-56
2024/04/02 06:13:29;;;;;;;2.63;0.20;;;16.60;74.90;;;;;;4177071;28;20036;-58
2024/04/02 06:15:30;;;;;;;1.15;0.10;;;16.60;74.80;;;;;;4177824;28;20036;-56
2024/04/02 06:17:32;;;;;;;0.22;0.10;;;16.60;75.00;;;;;;4176885;28;20082;-56
2024/04/02 06:19:33;;;;;;;0.30;0.20;;;16.50;74.40;;;;;;4177519;28;20067;-59
2024/04/02 06:21:34;;;;;;;2.70;0.13;;;16.50;74.70;;;;;;4176951;28;20025;-58
2024/04/02 06:23:36;;;;;;;0.65;0.10;;;16.40;74.80;;;;;;4177778;28;20075;-58
2024/04/02 06:25:37;;;;;;;0.63;0.08;;;16.50;74.80;;;;;;4177409;28;20032;-57
2024/04/02 06:27:40;;;;;;;1.35;0.10;;;16.50;74.90;;;;;;4177368;28;20071;-53
2024/04/02 06:29:42;;;;;;;1.30;0.10;;;16.50;74.80;;;;;;4177547;28;20063;-56
2024/04/02 06:31:44;;;;;;;1.33;0.10;;;16.60;74.90;;;;;;4175117;28;20048;-57
2024/04/02 06:33:45;;;;;;;0.40;0.20;;;16.60;74.80;;;;;;4176857;28;20122;-57
2024/04/02 06:35:46;;;;;;;4.03;0.20;;;16.50;75.00;;;;;;4176470;28;20083;-58
2024/04/02 06:37:48;;;;;;;2.15;0.40;;;16.50;75.10;;;;;;4177066;28;20037;-59
2024/04/02 06:39:49;;;;;;;0.55;0.13;;;16.50;75.20;;;;;;4176106;28;20045;-57
2024/04/02 06:41:51;;;;;;;1.23;0.40;;;16.60;75.20;;;;;;4177732;28;20075;-57
2024/04/02 06:43:52;;;;;;;0.90;0.20;;;16.50;75.20;;;;;;4176390;28;20147;-58
2024/04/02 06:45:59;;;;;;;1.75;0.20;;;16.60;75.40;;;;;;4177223;28;20079;-56
2024/04/02 06:48:00;;;;;;;0.35;0.13;;;16.60;75.30;;;;;;4176054;28;20037;-55
2024/04/02 06:50:04;;;;;;;1.70;0.10;;;16.70;75.30;;;;;;4177119;28;20198;-58
2024/04/02 06:52:05;;;;;;;0.15;0.15;;;16.60;75.20;;;;;;4176076;28;20413;-58
2024/04/02 06:54:07;;;;;;;3.40;0.30;;;16.70;75.30;;;;;;4177190;28;20040;-56
2024/04/02 06:56:08;;;;;;;2.92;0.10;;;16.60;75.40;;;;;;4176366;28;20037;-58
2024/04/02 06:58:09;;;;;;;0.43;0.10;;;16.60;75.40;;;;;;4177123;28;20033;-60
2024/04/02 07:00:14;;;;;;;0.22;0.00;;;16.40;75.50;;;;;;4176837;28;20110;-58
2024/04/02 07:02:15;;;;;;;1.10;0.10;;;16.40;75.80;;;;;;4177268;28;20102;-59
2024/04/02 07:04:16;;;;;;;0.20;0.10;;;16.30;75.80;;;;;;4176747;28;20075;-61
2024/04/02 07:06:18;;;;;;;1.25;0.40;;;16.30;75.90;;;;;;4176339;28;20477;-56
2024/04/02 07:08:25;;;;;;;1.35;0.10;;;16.40;75.80;;;;;;4176888;28;20440;-58
2024/04/02 07:10:27;;;;;;;3.78;0.32;;;16.50;75.80;;;;;;4176257;28;20032;-56
2024/04/02 07:12:28;;;;;;;1.55;0.08;;;16.50;75.70;;;;;;4177408;28;20436;-57
2024/04/02 07:14:29;;;;;;;0.10;0.10;;;16.40;75.70;;;;;;4175937;28;20485;-56
2024/04/02 07:16:30;;;;;;;0.65;0.10;;;16.60;75.50;;;;;;4176930;28;20435;-57
2024/04/02 07:18:35;;;;;;;1.65;0.20;;;16.80;74.90;;;;;;4175794;28;20036;-58
2024/04/02 07:20:36;;;;;;;2.10;0.08;;;17.00;74.40;;;;;;4176803;28;20053;-59
2024/04/02 07:22:39;;;;;;;5.43;0.63;;;17.20;73.30;;;;;;4176167;28;20469;-58
2024/04/02 07:24:40;;;;;;;0.00;0.00;;;17.30;73.00;;;;;;4177197;28;20083;-59
2024/04/02 07:26:42;;;;;;;4.20;0.10;;;17.30;71.40;;;;;;4179767;28;20358;-58
2024/04/02 07:28:43;;;;;;;2.45;0.20;;;17.30;71.20;;;;;;4180317;28;20461;-57
2024/04/02 07:30:44;;;;;;;1.33;0.03;;;17.50;70.60;;;;;;4179266;28;20033;-59
2024/04/02 07:32:46;;;;;;;0.65;0.00;;;17.70;70.40;;;;;;4180409;28;20075;-59
2024/04/02 07:34:47;;;;;;;3.20;0.00;;;17.80;70.10;;;;;;4179275;28;20047;-58
2024/04/02 07:36:48;;;;;;;1.08;0.00;;;18.00;69.50;;;;;;4179338;28;20040;-59
2024/04/02 07:38:49;;;;;;;5.55;0.10;;;17.90;69.30;;;;;;4179992;28;20075;-58
2024/04/02 07:40:51;;;;;;;1.13;0.17;;;17.80;69.60;;;;;;4179131;28;20053;-58
2024/04/02 07:42:52;;;;;;;1.75;0.00;;;18.20;69.40;;;;;;4180470;28;20415;-58
2024/04/02 07:44:53;;;;;;;0.45;0.00;;;18.50;68.90;;;;;;4179335;28;20059;-56
2024/04/02 07:46:54;;;;;;;0.85;0.20;;;18.80;68.50;;;;;;4180389;28;20416;-58
2024/04/02 07:48:56;;;;;;;0.90;0.10;;;19.30;68.00;;;;;;4178652;28;20025;-60
2024/04/02 07:50:58;;;;;;;1.30;0.10;;;19.40;66.60;;;;;;4179757;28;20033;-55
2024/04/02 07:52:59;;;;;;;0.43;0.10;;;19.60;66.30;;;;;;4178628;28;20570;-58
2024/04/02 07:55:00;;;;;;;1.63;0.03;;;19.70;66.30;;;;;;4180096;28;20562;-59
2024/04/02 07:57:02;;;;;;;0.40;0.10;;;19.90;65.40;;;;;;4178648;28;20091;-59
2024/04/02 07:59:04;;;;;;;0.63;0.10;;;19.90;65.20;;;;;;4180018;28;20083;-59
2024/04/02 08:01:05;;;;;;;2.25;0.10;;;19.90;64.80;;;;;;4179192;28;20162;-59
2024/04/02 08:03:06;;;;;;;2.58;0.10;;;20.20;64.90;;;;;;4180062;28;20090;-60
2024/04/02 08:05:08;;;;;;;0.15;0.08;;;20.40;64.50;;;;;;4178888;28;20029;-60
2024/04/02 08:07:10;;;;;;;0.47;0.00;;;20.60;63.50;;;;;;4179462;28;20029;-59
2024/04/02 08:09:11;;;;;;;0.22;0.10;;;20.30;63.80;;;;;;4179064;28;20448;-60
2024/04/02 08:11:13;;;;;;;2.85;0.00;;;20.20;64.00;;;;;;4179016;28;20431;-60
2024/04/02 08:13:14;;;;;;;1.30;0.10;;;20.20;63.70;;;;;;4179926;28;20516;-59
2024/04/02 08:15:15;;;;;;;1.10;0.10;;;20.30;62.90;;;;;;4178831;28;20021;-58
2024/04/02 08:17:16;;;;;;;3.35;0.03;;;19.90;62.90;;;;;;4179415;28;20033;-57
2024/04/02 08:19:18;;;;;;;3.55;0.00;;;19.50;63.40;;;;;;4178102;28;20090;-58
2024/04/02 08:21:19;;;;;;;1.00;0.00;;;19.20;63.80;;;;;;4179579;28;20041;-57
2024/04/02 08:23:20;;;;;;;2.78;0.00;;;18.90;64.50;;;;;;4178447;28;20040;-58
2024/04/02 08:25:21;;;;;;;0.63;0.00;;;18.50;64.80;;;;;;4179350;28;20111;-59
2024/04/02 08:27:23;;;;;;;0.50;0.00;;;18.20;65.60;;;;;;4178523;28;20366;-59
2024/04/02 08:29:24;;;;;;;0.80;0.00;;;17.90;65.90;;;;;;4179718;28;20082;-56
2024/04/02 08:31:25;;;;;;;2.00;0.22;;;17.70;66.50;;;;;;4177956;28;20118;-58
2024/04/02 08:33:26;;;;;;;0.28;0.15;;;17.80;66.80;;;;;;4178711;28;20103;-57
2024/04/02 08:35:28;;;;;;;0.52;0.10;;;17.80;66.70;;;;;;4178668;28;20083;-59
2024/04/02 08:37:29;;;;;;;0.57;0.00;;;17.80;67.10;;;;;;4177399;28;20374;-58
2024/04/02 08:39:30;;;;;;;0.10;0.00;;;17.70;67.10;;;;;;4178067;28;20041;-59
2024/04/02 08:41:36;;;;;;;0.32;0.00;;;17.70;67.40;;;;;;4178252;28;20501;-57
2024/04/02 08:43:43;;;;;;;0.40;0.00;;;17.60;67.50;;;;;;4178601;28;20064;-57
2024/04/02 08:45:45;;;;;;;2.75;0.00;;;17.50;68.10;;;;;;4177729;28;20049;-58
2024/04/02 08:47:47;;;;;;;0.10;0.00;;;17.80;67.90;;;;;;4178804;28;20041;-58
2024/04/02 08:49:51;;;;;;;0.70;0.10;;;18.10;67.50;;;;;;4177764;28;20789;-57
2024/04/02 08:51:54;;;;;;;1.65;0.00;;;18.10;67.30;;;;;;4179177;28;20805;-58
2024/04/02 08:53:58;;;;;;;1.60;0.00;;;17.90;67.40;;;;;;4177809;28;20045;-56
2024/04/02 08:55:59;;;;;;;0.73;0.10;;;18.00;67.70;;;;;;4179334;28;20021;-58
2024/04/02 08:58:05;;;;;;;0.80;0.03;;;18.10;67.80;;;;;;4178055;28;20449;-57
2024/04/02 09:00:07;;;;;;;0.63;0.20;;;18.40;67.60;;;;;;4177717;28;20045;-57
2024/04/02 09:02:09;;;;;;;0.25;0.10;;;18.70;67.10;;;;;;4177916;28;20041;-56
2024/04/02 09:04:14;;;;;;;1.40;0.10;;;18.80;66.90;;;;;;4178754;28;20090;-59
2024/04/02 09:06:15;;;;;;;0.40;0.00;;;19.00;66.60;;;;;;4177941;28;20132;-58
2024/04/02 09:08:17;;;;;;;0.30;0.00;;;18.70;67.00;;;;;;4178639;28;20543;-58
2024/04/02 09:10:18;;;;;;;0.10;0.00;;;18.80;67.30;;;;;;4177801;28;20033;-56
2024/04/02 09:12:19;;;;;;;0.20;0.00;;;18.80;67.10;;;;;;4178050;28;20048;-58
2024/04/02 09:14:22;;;;;;;1.50;0.00;;;18.50;67.20;;;;;;4178206;28;20103;-58
2024/04/02 09:16:24;;;;;;;0.10;0.00;;;18.10;67.80;;;;;;4178098;28;20033;-59
2024/04/02 09:18:30;;;;;;;1.10;0.00;;;17.70;68.40;;;;;;4177852;28;20451;-58
2024/04/02 09:20:33;;;;;;;1.65;0.10;;;17.50;68.80;;;;;;4177995;28;20044;-57
2024/04/02 09:22:34;;;;;;;2.22;0.00;;;17.50;69.00;;;;;;4178634;28;20210;-59
2024/04/02 09:24:36;;;;;;;0.98;0.30;;;17.30;69.30;;;;;;4177129;28;20431;-57
2024/04/02 09:26:37;;;;;;;2.83;0.10;;;17.30;69.70;;;;;;4178534;28;20075;-56
2024/04/02 09:28:39;;;;;;;3.67;0.20;;;17.30;70.00;;;;;;4177262;28;20105;-59
2024/04/02 09:30:40;;;;;;;0.35;0.10;;;17.40;70.10;;;;;;4178304;28;20037;-58
2024/04/02 09:32:43;;;;;;;0.55;0.10;;;17.50;69.20;;;;;;4176592;28;20052;-57
2024/04/02 09:34:49;;;;;;;0.20;0.00;;;17.40;69.20;;;;;;4178557;28;20044;-57
2024/04/02 09:37:19;;;;;;;0.90;0.32;;;17.50;68.80;;;;;;4177223;28;20562;-56
2024/04/02 09:39:22;;;;;;;4.78;0.20;;;17.50;68.70;;;;;;4178213;28;20386;-57
2024/04/02 09:41:26;;;;;;;2.60;0.10;;;17.60;68.80;;;;;;4177308;28;20041;-59
2024/04/02 09:43:30;;;;;;;2.15;0.00;;;17.60;68.10;;;;;;4178396;28;20037;-57
2024/04/02 09:45:32;;;;;;;0.22;0.00;;;17.30;68.20;;;;;;4176952;28;20045;-58
2024/04/02 09:47:34;;;;;;;0.45;0.10;;;17.20;68.20;;;;;;4177772;28;20037;-60
2024/04/02 09:49:36;;;;;;;7.25;0.50;;;17.10;68.60;;;;;;4177261;28;20025;-58
2024/04/02 09:51:41;;;;;;;4.38;0.20;;;16.90;67.40;;;;;;4178195;28;20037;-60
2024/04/02 09:53:43;;;;;;;2.97;0.38;;;16.80;67.20;;;;;;4177092;28;20496;-58
2024/04/02 09:55:45;;;;;;;5.07;0.10;;;17.00;67.20;;;;;;4177697;28;20106;-58
2024/04/02 09:57:46;;;;;;;6.70;0.00;;;17.10;66.60;;;;;;4177442;28;20079;-56
2024/04/02 09:59:47;;;;;;;0.00;0.00;;;17.10;66.40;;;;;;4177246;28;20102;-57
2024/04/02 10:01:49;;;;;;;0.00;0.00;;;17.00;66.10;;;;;;4177990;28;20021;-59
2024/04/02 10:03:56;;;;;;;0.55;0.00;;;16.90;66.30;;;;;;4177179;28;20481;-59
2024/04/02 10:06:08;;;;;;;0.17;0.00;;;16.80;66.50;;;;;;4177882;28;20110;-59
2024/04/02 10:08:11;;;;;;;2.67;0.10;;;16.70;67.00;;;;;;4176999;28;20461;-54
2024/04/02 10:10:12;;;;;;;1.27;0.10;;;16.60;67.50;;;;;;4177876;28;20467;-57
2024/04/02 10:12:18;;;;;;;0.45;0.10;;;16.50;67.60;;;;;;4176929;28;20037;-57
2024/04/02 10:14:20;;;;;;;0.45;0.00;;;16.40;67.90;;;;;;4177549;28;20533;-57
2024/04/02 10:16:22;;;;;;;1.08;0.00;;;16.30;67.70;;;;;;4176260;28;20053;-56
2024/04/02 10:18:23;;;;;;;2.65;0.10;;;16.10;67.90;;;;;;4177677;28;20021;-58
2024/04/02 10:20:32;;;;;;;2.65;0.10;;;15.80;68.50;;;;;;4176284;28;20041;-61
2024/04/02 10:22:36;;;;;;;2.25;0.10;;;15.80;68.80;;;;;;4177806;28;20114;-58
2024/04/02 10:24:37;;;;;;;1.05;0.00;;;15.60;69.10;;;;;;4176112;28;20083;-58
2024/04/02 10:26:40;;;;;;;0.30;0.10;;;15.50;69.70;;;;;;4177720;28;20045;-59
2024/04/02 10:28:42;;;;;;;0.47;0.00;;;15.40;70.10;;;;;;4176570;28;20029;-54